sensor_id;sensor_type;location;lat;lon;timestamp;P1;durP1;ratioP1;P2;durP2;ratioP2
58768;SDS011;44536;47.474;19.056;2023-12-20T00:02:44;16.55;;;8.48;;
58768;SDS011;44536;47.474;19.056;2023-12-20T00:05:49;26.87;;;11.85;;
58768;SDS011;44536;47.474;19.056;2023-12-20T00:08:51;10.65;;;6.78;;
58768;SDS011;44536;47.474;19.056;2023-12-20T00:11:53;20.30;;;7.18;;
58768;SDS011;44536;47.474;19.056;2023-12-20T00:14:55;21.20;;;8.60;;
58768;SDS011;44536;47.474;19.056;2023-12-20T00:17:57;14.10;;;8.68;;
58768;SDS011;44536;47.474;19.056;2023-12-20T00:20:59;14.82;;;7.55;;
58768;SDS011;44536;47.474;19.056;2023-12-20T00:24:01;14.35;;;7.20;;
58768;SDS011;44536;47.474;19.056;2023-12-20T00:27:03;16.08;;;8.95;;
58768;SDS011;44536;47.474;19.056;2023-12-20T00:30:06;16.33;;;9.63;;
58768;SDS011;44536;47.474;19.056;2023-12-20T00:33:08;13.20;;;7.03;;
58768;SDS011;44536;47.474;19.056;2023-12-20T00:36:10;13.80;;;8.27;;
58768;SDS011;44536;47.474;19.056;2023-12-20T00:39:12;27.15;;;8.15;;
58768;SDS011;44536;47.474;19.056;2023-12-20T00:42:14;10.70;;;8.68;;
58768;SDS011;44536;47.474;19.056;2023-12-20T00:45:16;11.80;;;8.27;;
58768;SDS011;44536;47.474;19.056;2023-12-20T00:48:19;12.55;;;5.30;;
58768;SDS011;44536;47.474;19.056;2023-12-20T00:51:21;21.25;;;13.68;;
58768;SDS011;44536;47.474;19.056;2023-12-20T00:54:24;15.23;;;7.22;;
58768;SDS011;44536;47.474;19.056;2023-12-20T00:57:26;9.70;;;5.55;;
58768;SDS011;44536;47.474;19.056;2023-12-20T01:00:28;17.23;;;7.65;;
58768;SDS011;44536;47.474;19.056;2023-12-20T01:03:30;16.33;;;11.35;;
58768;SDS011;44536;47.474;19.056;2023-12-20T01:06:32;17.95;;;9.15;;
58768;SDS011;44536;47.474;19.056;2023-12-20T01:09:34;17.25;;;12.07;;
58768;SDS011;44536;47.474;19.056;2023-12-20T01:12:36;11.10;;;5.62;;
58768;SDS011;44536;47.474;19.056;2023-12-20T01:15:38;15.15;;;9.45;;
58768;SDS011;44536;47.474;19.056;2023-12-20T01:18:41;21.25;;;9.20;;
58768;SDS011;44536;47.474;19.056;2023-12-20T01:21:44;8.55;;;6.97;;
58768;SDS011;44536;47.474;19.056;2023-12-20T01:24:46;10.43;;;5.72;;
58768;SDS011;44536;47.474;19.056;2023-12-20T01:27:48;17.37;;;7.30;;
58768;SDS011;44536;47.474;19.056;2023-12-20T01:30:50;13.80;;;8.77;;
58768;SDS011;44536;47.474;19.056;2023-12-20T01:33:52;9.18;;;7.20;;
58768;SDS011;44536;47.474;19.056;2023-12-20T01:36:55;17.50;;;7.83;;
58768;SDS011;44536;47.474;19.056;2023-12-20T01:39:57;12.07;;;9.02;;
58768;SDS011;44536;47.474;19.056;2023-12-20T01:43:01;9.48;;;7.35;;
58768;SDS011;44536;47.474;19.056;2023-12-20T01:46:04;8.43;;;6.78;;
58768;SDS011;44536;47.474;19.056;2023-12-20T01:49:06;17.08;;;7.30;;
58768;SDS011;44536;47.474;19.056;2023-12-20T01:52:08;12.25;;;5.47;;
58768;SDS011;44536;47.474;19.056;2023-12-20T01:55:14;18.12;;;6.25;;
58768;SDS011;44536;47.474;19.056;2023-12-20T01:58:17;13.98;;;5.68;;
58768;SDS011;44536;47.474;19.056;2023-12-20T02:04:23;11.23;;;6.97;;
58768;SDS011;44536;47.474;19.056;2023-12-20T02:07:25;11.27;;;7.37;;
58768;SDS011;44536;47.474;19.056;2023-12-20T02:10:28;19.30;;;8.98;;
58768;SDS011;44536;47.474;19.056;2023-12-20T02:13:31;17.05;;;9.38;;
58768;SDS011;44536;47.474;19.056;2023-12-20T02:16:33;11.70;;;7.78;;
58768;SDS011;44536;47.474;19.056;2023-12-20T02:19:35;14.23;;;6.60;;
58768;SDS011;44536;47.474;19.056;2023-12-20T02:22:38;16.10;;;9.73;;
58768;SDS011;44536;47.474;19.056;2023-12-20T02:25:40;12.43;;;10.13;;
58768;SDS011;44536;47.474;19.056;2023-12-20T02:28:42;18.98;;;8.70;;
58768;SDS011;44536;47.474;19.056;2023-12-20T02:31:44;12.25;;;9.18;;
58768;SDS011;44536;47.474;19.056;2023-12-20T02:34:47;13.07;;;7.72;;
58768;SDS011;44536;47.474;19.056;2023-12-20T02:37:50;13.85;;;8.68;;
58768;SDS011;44536;47.474;19.056;2023-12-20T02:40:52;9.48;;;7.03;;
58768;SDS011;44536;47.474;19.056;2023-12-20T02:43:54;21.70;;;10.02;;
58768;SDS011;44536;47.474;19.056;2023-12-20T02:46:56;13.68;;;7.87;;
58768;SDS011;44536;47.474;19.056;2023-12-20T02:49:58;16.45;;;8.82;;
58768;SDS011;44536;47.474;19.056;2023-12-20T02:53:01;33.47;;;11.20;;
58768;SDS011;44536;47.474;19.056;2023-12-20T02:56:03;12.75;;;9.07;;
58768;SDS011;44536;47.474;19.056;2023-12-20T02:59:05;21.00;;;9.73;;
58768;SDS011;44536;47.474;19.056;2023-12-20T03:02:08;10.53;;;8.90;;
58768;SDS011;44536;47.474;19.056;2023-12-20T03:05:10;20.73;;;11.02;;
58768;SDS011;44536;47.474;19.056;2023-12-20T03:08:12;16.83;;;8.07;;
58768;SDS011;44536;47.474;19.056;2023-12-20T03:11:14;12.98;;;7.78;;
58768;SDS011;44536;47.474;19.056;2023-12-20T03:14:16;10.80;;;7.68;;
58768;SDS011;44536;47.474;19.056;2023-12-20T03:17:18;11.45;;;9.13;;
58768;SDS011;44536;47.474;19.056;2023-12-20T03:20:21;24.52;;;12.15;;
58768;SDS011;44536;47.474;19.056;2023-12-20T03:23:23;14.40;;;9.32;;
58768;SDS011;44536;47.474;19.056;2023-12-20T03:26:25;14.27;;;9.57;;
58768;SDS011;44536;47.474;19.056;2023-12-20T03:29:27;5.37;;;3.87;;
58768;SDS011;44536;47.474;19.056;2023-12-20T03:32:30;12.60;;;7.82;;
58768;SDS011;44536;47.474;19.056;2023-12-20T03:35:32;21.17;;;10.68;;
58768;SDS011;44536;47.474;19.056;2023-12-20T03:38:34;22.33;;;12.00;;
58768;SDS011;44536;47.474;19.056;2023-12-20T03:41:36;16.73;;;9.40;;
58768;SDS011;44536;47.474;19.056;2023-12-20T03:44:39;19.57;;;8.53;;
58768;SDS011;44536;47.474;19.056;2023-12-20T03:47:41;6.25;;;3.28;;
58768;SDS011;44536;47.474;19.056;2023-12-20T03:50:44;10.93;;;7.85;;
58768;SDS011;44536;47.474;19.056;2023-12-20T03:53:46;11.23;;;7.55;;
58768;SDS011;44536;47.474;19.056;2023-12-20T03:56:48;14.18;;;7.07;;
58768;SDS011;44536;47.474;19.056;2023-12-20T03:59:50;14.32;;;8.60;;
58768;SDS011;44536;47.474;19.056;2023-12-20T04:02:53;10.75;;;7.78;;
58768;SDS011;44536;47.474;19.056;2023-12-20T04:05:55;6.53;;;5.10;;
58768;SDS011;44536;47.474;19.056;2023-12-20T04:08:57;14.82;;;8.85;;
58768;SDS011;44536;47.474;19.056;2023-12-20T04:12:00;14.70;;;7.72;;
58768;SDS011;44536;47.474;19.056;2023-12-20T04:15:02;16.55;;;7.97;;
58768;SDS011;44536;47.474;19.056;2023-12-20T04:18:11;21.00;;;10.60;;
58768;SDS011;44536;47.474;19.056;2023-12-20T04:21:13;12.00;;;7.82;;
58768;SDS011;44536;47.474;19.056;2023-12-20T04:24:15;14.98;;;10.18;;
58768;SDS011;44536;47.474;19.056;2023-12-20T04:27:17;18.08;;;8.38;;
58768;SDS011;44536;47.474;19.056;2023-12-20T04:30:20;11.93;;;6.82;;
58768;SDS011;44536;47.474;19.056;2023-12-20T04:33:22;10.88;;;9.90;;
58768;SDS011;44536;47.474;19.056;2023-12-20T04:36:24;16.95;;;7.80;;
58768;SDS011;44536;47.474;19.056;2023-12-20T04:39:31;9.00;;;8.13;;
58768;SDS011;44536;47.474;19.056;2023-12-20T04:42:33;17.17;;;8.38;;
58768;SDS011;44536;47.474;19.056;2023-12-20T04:45:35;21.17;;;10.13;;
58768;SDS011;44536;47.474;19.056;2023-12-20T04:48:38;26.02;;;12.55;;
58768;SDS011;44536;47.474;19.056;2023-12-20T04:51:40;15.75;;;7.62;;
58768;SDS011;44536;47.474;19.056;2023-12-20T04:54:43;16.52;;;10.07;;
58768;SDS011;44536;47.474;19.056;2023-12-20T04:57:46;14.90;;;8.25;;
58768;SDS011;44536;47.474;19.056;2023-12-20T05:00:48;20.27;;;9.97;;
58768;SDS011;44536;47.474;19.056;2023-12-20T05:03:51;7.32;;;5.15;;
58768;SDS011;44536;47.474;19.056;2023-12-20T05:06:53;15.73;;;10.10;;
58768;SDS011;44536;47.474;19.056;2023-12-20T05:09:55;22.17;;;9.45;;
58768;SDS011;44536;47.474;19.056;2023-12-20T05:12:57;11.77;;;6.63;;
58768;SDS011;44536;47.474;19.056;2023-12-20T05:16:00;15.70;;;8.05;;
58768;SDS011;44536;47.474;19.056;2023-12-20T05:19:02;20.15;;;8.77;;
58768;SDS011;44536;47.474;19.056;2023-12-20T05:22:08;23.65;;;10.70;;
58768;SDS011;44536;47.474;19.056;2023-12-20T05:25:11;19.90;;;10.07;;
58768;SDS011;44536;47.474;19.056;2023-12-20T05:28:13;17.65;;;10.73;;
58768;SDS011;44536;47.474;19.056;2023-12-20T05:31:15;12.75;;;11.50;;
58768;SDS011;44536;47.474;19.056;2023-12-20T05:34:18;14.25;;;8.48;;
58768;SDS011;44536;47.474;19.056;2023-12-20T05:37:20;14.65;;;8.68;;
58768;SDS011;44536;47.474;19.056;2023-12-20T05:40:22;18.83;;;8.07;;
58768;SDS011;44536;47.474;19.056;2023-12-20T05:43:24;10.68;;;8.88;;
58768;SDS011;44536;47.474;19.056;2023-12-20T05:46:26;17.90;;;12.60;;
58768;SDS011;44536;47.474;19.056;2023-12-20T05:49:29;14.48;;;9.52;;
58768;SDS011;44536;47.474;19.056;2023-12-20T05:52:31;15.65;;;8.32;;
58768;SDS011;44536;47.474;19.056;2023-12-20T05:55:33;24.58;;;10.45;;
58768;SDS011;44536;47.474;19.056;2023-12-20T05:58:36;28.67;;;8.88;;
58768;SDS011;44536;47.474;19.056;2023-12-20T06:01:38;11.73;;;8.00;;
58768;SDS011;44536;47.474;19.056;2023-12-20T06:04:44;15.88;;;9.20;;
58768;SDS011;44536;47.474;19.056;2023-12-20T06:07:46;13.40;;;9.85;;
58768;SDS011;44536;47.474;19.056;2023-12-20T06:10:50;11.98;;;8.63;;
58768;SDS011;44536;47.474;19.056;2023-12-20T06:13:53;19.93;;;9.37;;
58768;SDS011;44536;47.474;19.056;2023-12-20T06:16:56;24.30;;;13.48;;
58768;SDS011;44536;47.474;19.056;2023-12-20T06:19:58;29.73;;;12.18;;
58768;SDS011;44536;47.474;19.056;2023-12-20T06:23:00;13.13;;;9.50;;
58768;SDS011;44536;47.474;19.056;2023-12-20T06:26:02;17.90;;;9.32;;
58768;SDS011;44536;47.474;19.056;2023-12-20T06:29:05;14.82;;;7.68;;
58768;SDS011;44536;47.474;19.056;2023-12-20T06:32:07;16.70;;;12.37;;
58768;SDS011;44536;47.474;19.056;2023-12-20T06:35:09;13.43;;;11.30;;
58768;SDS011;44536;47.474;19.056;2023-12-20T06:38:11;15.00;;;8.15;;
58768;SDS011;44536;47.474;19.056;2023-12-20T06:41:14;22.27;;;11.30;;
58768;SDS011;44536;47.474;19.056;2023-12-20T06:44:17;17.90;;;7.95;;
58768;SDS011;44536;47.474;19.056;2023-12-20T06:47:19;18.23;;;10.30;;
58768;SDS011;44536;47.474;19.056;2023-12-20T06:50:21;18.37;;;8.75;;
58768;SDS011;44536;47.474;19.056;2023-12-20T06:53:24;31.12;;;12.70;;
58768;SDS011;44536;47.474;19.056;2023-12-20T06:56:26;20.48;;;10.90;;
58768;SDS011;44536;47.474;19.056;2023-12-20T06:59:28;16.45;;;11.73;;
58768;SDS011;44536;47.474;19.056;2023-12-20T07:02:30;16.48;;;8.95;;
58768;SDS011;44536;47.474;19.056;2023-12-20T07:05:33;19.65;;;9.73;;
58768;SDS011;44536;47.474;19.056;2023-12-20T07:08:35;17.23;;;8.13;;
58768;SDS011;44536;47.474;19.056;2023-12-20T07:11:38;17.77;;;5.90;;
58768;SDS011;44536;47.474;19.056;2023-12-20T07:14:40;13.30;;;9.52;;
58768;SDS011;44536;47.474;19.056;2023-12-20T07:17:43;10.55;;;7.15;;
58768;SDS011;44536;47.474;19.056;2023-12-20T07:20:45;14.00;;;8.27;;
58768;SDS011;44536;47.474;19.056;2023-12-20T07:23:48;22.92;;;9.52;;
58768;SDS011;44536;47.474;19.056;2023-12-20T07:26:50;21.95;;;9.35;;
58768;SDS011;44536;47.474;19.056;2023-12-20T07:29:53;20.27;;;9.15;;
58768;SDS011;44536;47.474;19.056;2023-12-20T07:32:54;19.05;;;10.77;;
58768;SDS011;44536;47.474;19.056;2023-12-20T07:35:57;18.35;;;10.15;;
58768;SDS011;44536;47.474;19.056;2023-12-20T07:39:01;16.08;;;10.95;;
58768;SDS011;44536;47.474;19.056;2023-12-20T07:42:04;16.85;;;8.48;;
58768;SDS011;44536;47.474;19.056;2023-12-20T07:45:08;13.25;;;9.85;;
58768;SDS011;44536;47.474;19.056;2023-12-20T07:48:11;15.73;;;10.45;;
58768;SDS011;44536;47.474;19.056;2023-12-20T07:51:13;16.05;;;9.77;;
58768;SDS011;44536;47.474;19.056;2023-12-20T07:54:16;17.57;;;7.70;;
58768;SDS011;44536;47.474;19.056;2023-12-20T07:57:18;20.08;;;13.07;;
58768;SDS011;44536;47.474;19.056;2023-12-20T08:00:21;15.38;;;10.65;;
58768;SDS011;44536;47.474;19.056;2023-12-20T08:03:23;16.83;;;8.63;;
58768;SDS011;44536;47.474;19.056;2023-12-20T08:06:25;25.12;;;10.38;;
58768;SDS011;44536;47.474;19.056;2023-12-20T08:09:27;15.88;;;10.73;;
58768;SDS011;44536;47.474;19.056;2023-12-20T08:12:29;23.15;;;10.32;;
58768;SDS011;44536;47.474;19.056;2023-12-20T08:15:31;25.45;;;10.98;;
58768;SDS011;44536;47.474;19.056;2023-12-20T08:18:33;17.40;;;12.75;;
58768;SDS011;44536;47.474;19.056;2023-12-20T08:21:36;15.77;;;10.27;;
58768;SDS011;44536;47.474;19.056;2023-12-20T08:24:39;29.33;;;12.77;;
58768;SDS011;44536;47.474;19.056;2023-12-20T08:27:42;21.92;;;10.32;;
58768;SDS011;44536;47.474;19.056;2023-12-20T08:30:44;17.92;;;14.65;;
58768;SDS011;44536;47.474;19.056;2023-12-20T08:33:47;36.22;;;18.58;;
58768;SDS011;44536;47.474;19.056;2023-12-20T08:36:50;21.25;;;11.00;;
58768;SDS011;44536;47.474;19.056;2023-12-20T08:42:55;18.45;;;10.90;;
58768;SDS011;44536;47.474;19.056;2023-12-20T08:45:59;28.52;;;15.60;;
58768;SDS011;44536;47.474;19.056;2023-12-20T08:49:02;27.05;;;15.32;;
58768;SDS011;44536;47.474;19.056;2023-12-20T08:52:05;24.52;;;13.25;;
58768;SDS011;44536;47.474;19.056;2023-12-20T08:55:07;28.30;;;14.82;;
58768;SDS011;44536;47.474;19.056;2023-12-20T09:01:16;27.25;;;13.43;;
58768;SDS011;44536;47.474;19.056;2023-12-20T09:04:18;25.00;;;11.23;;
58768;SDS011;44536;47.474;19.056;2023-12-20T09:07:27;26.23;;;15.90;;
58768;SDS011;44536;47.474;19.056;2023-12-20T09:10:30;26.08;;;14.43;;
58768;SDS011;44536;47.474;19.056;2023-12-20T09:13:32;26.62;;;10.60;;
58768;SDS011;44536;47.474;19.056;2023-12-20T09:16:35;30.02;;;17.02;;
58768;SDS011;44536;47.474;19.056;2023-12-20T09:19:37;21.45;;;9.63;;
58768;SDS011;44536;47.474;19.056;2023-12-20T09:22:40;27.45;;;19.80;;
58768;SDS011;44536;47.474;19.056;2023-12-20T09:25:43;29.45;;;14.05;;
58768;SDS011;44536;47.474;19.056;2023-12-20T09:28:46;24.30;;;12.48;;
58768;SDS011;44536;47.474;19.056;2023-12-20T09:31:48;37.78;;;19.20;;
58768;SDS011;44536;47.474;19.056;2023-12-20T09:34:50;23.10;;;14.73;;
58768;SDS011;44536;47.474;19.056;2023-12-20T09:37:53;37.55;;;18.95;;
58768;SDS011;44536;47.474;19.056;2023-12-20T09:40:55;21.00;;;13.07;;
58768;SDS011;44536;47.474;19.056;2023-12-20T09:43:58;34.47;;;17.90;;
58768;SDS011;44536;47.474;19.056;2023-12-20T09:47:03;36.53;;;20.40;;
58768;SDS011;44536;47.474;19.056;2023-12-20T09:50:06;29.87;;;16.25;;
58768;SDS011;44536;47.474;19.056;2023-12-20T09:53:09;15.60;;;9.77;;
58768;SDS011;44536;47.474;19.056;2023-12-20T09:56:11;18.65;;;11.02;;
58768;SDS011;44536;47.474;19.056;2023-12-20T09:59:14;33.28;;;13.18;;
58768;SDS011;44536;47.474;19.056;2023-12-20T10:02:16;33.72;;;16.98;;
58768;SDS011;44536;47.474;19.056;2023-12-20T10:05:20;42.47;;;17.23;;
58768;SDS011;44536;47.474;19.056;2023-12-20T10:08:27;37.13;;;15.90;;
58768;SDS011;44536;47.474;19.056;2023-12-20T10:11:32;27.87;;;12.82;;
58768;SDS011;44536;47.474;19.056;2023-12-20T10:14:34;37.88;;;17.77;;
58768;SDS011;44536;47.474;19.056;2023-12-20T10:17:36;33.50;;;18.12;;
58768;SDS011;44536;47.474;19.056;2023-12-20T10:20:39;35.67;;;18.77;;
58768;SDS011;44536;47.474;19.056;2023-12-20T10:23:42;36.75;;;22.05;;
58768;SDS011;44536;47.474;19.056;2023-12-20T10:26:44;31.98;;;17.12;;
58768;SDS011;44536;47.474;19.056;2023-12-20T10:29:46;21.12;;;13.18;;
58768;SDS011;44536;47.474;19.056;2023-12-20T10:32:48;34.38;;;19.75;;
58768;SDS011;44536;47.474;19.056;2023-12-20T10:35:51;37.87;;;18.70;;
58768;SDS011;44536;47.474;19.056;2023-12-20T10:38:54;39.30;;;16.70;;
58768;SDS011;44536;47.474;19.056;2023-12-20T10:41:57;25.90;;;15.60;;
58768;SDS011;44536;47.474;19.056;2023-12-20T10:44:59;24.75;;;14.75;;
58768;SDS011;44536;47.474;19.056;2023-12-20T10:48:02;29.25;;;15.38;;
58768;SDS011;44536;47.474;19.056;2023-12-20T10:51:06;35.47;;;17.67;;
58768;SDS011;44536;47.474;19.056;2023-12-20T10:54:09;32.15;;;13.20;;
58768;SDS011;44536;47.474;19.056;2023-12-20T10:57:11;29.60;;;13.50;;
58768;SDS011;44536;47.474;19.056;2023-12-20T11:00:14;25.98;;;13.00;;
58768;SDS011;44536;47.474;19.056;2023-12-20T11:03:18;46.95;;;16.02;;
58768;SDS011;44536;47.474;19.056;2023-12-20T11:06:36;21.75;;;14.55;;
58768;SDS011;44536;47.474;19.056;2023-12-20T11:09:41;18.30;;;8.90;;
58768;SDS011;44536;47.474;19.056;2023-12-20T11:13:01;36.08;;;15.60;;
58768;SDS011;44536;47.474;19.056;2023-12-20T11:16:05;19.85;;;16.40;;
58768;SDS011;44536;47.474;19.056;2023-12-20T11:19:08;35.25;;;15.82;;
58768;SDS011;44536;47.474;19.056;2023-12-20T11:22:12;33.13;;;18.48;;
58768;SDS011;44536;47.474;19.056;2023-12-20T11:25:17;29.52;;;17.05;;
58768;SDS011;44536;47.474;19.056;2023-12-20T11:28:23;40.53;;;21.62;;
58768;SDS011;44536;47.474;19.056;2023-12-20T11:31:26;35.28;;;19.52;;
58768;SDS011;44536;47.474;19.056;2023-12-20T11:34:31;28.27;;;19.73;;
58768;SDS011;44536;47.474;19.056;2023-12-20T11:37:37;49.60;;;20.45;;
58768;SDS011;44536;47.474;19.056;2023-12-20T11:40:40;36.83;;;23.30;;
58768;SDS011;44536;47.474;19.056;2023-12-20T11:43:44;34.83;;;20.27;;
58768;SDS011;44536;47.474;19.056;2023-12-20T11:46:46;44.65;;;26.87;;
58768;SDS011;44536;47.474;19.056;2023-12-20T11:49:48;43.63;;;21.52;;
58768;SDS011;44536;47.474;19.056;2023-12-20T11:52:51;41.05;;;26.27;;
58768;SDS011;44536;47.474;19.056;2023-12-20T11:55:56;43.38;;;24.40;;
58768;SDS011;44536;47.474;19.056;2023-12-20T11:58:59;45.00;;;27.70;;
58768;SDS011;44536;47.474;19.056;2023-12-20T12:02:20;53.50;;;26.52;;
58768;SDS011;44536;47.474;19.056;2023-12-20T12:05:23;42.78;;;22.75;;
58768;SDS011;44536;47.474;19.056;2023-12-20T12:08:25;36.35;;;21.20;;
58768;SDS011;44536;47.474;19.056;2023-12-20T12:11:28;51.75;;;26.77;;
58768;SDS011;44536;47.474;19.056;2023-12-20T12:14:30;43.60;;;24.70;;
58768;SDS011;44536;47.474;19.056;2023-12-20T12:17:33;32.42;;;18.95;;
58768;SDS011;44536;47.474;19.056;2023-12-20T12:20:38;36.83;;;19.83;;
58768;SDS011;44536;47.474;19.056;2023-12-20T12:23:41;37.45;;;20.60;;
58768;SDS011;44536;47.474;19.056;2023-12-20T12:26:49;27.85;;;14.85;;
58768;SDS011;44536;47.474;19.056;2023-12-20T12:30:01;24.75;;;12.68;;
58768;SDS011;44536;47.474;19.056;2023-12-20T12:33:04;20.90;;;11.43;;
58768;SDS011;44536;47.474;19.056;2023-12-20T12:36:07;23.75;;;9.40;;
58768;SDS011;44536;47.474;19.056;2023-12-20T12:39:11;16.10;;;6.90;;
58768;SDS011;44536;47.474;19.056;2023-12-20T12:42:14;8.43;;;3.83;;
58768;SDS011;44536;47.474;19.056;2023-12-20T12:45:16;7.85;;;4.20;;
58768;SDS011;44536;47.474;19.056;2023-12-20T12:48:18;8.32;;;3.70;;
58768;SDS011;44536;47.474;19.056;2023-12-20T12:51:20;9.20;;;4.30;;
58768;SDS011;44536;47.474;19.056;2023-12-20T12:54:23;9.90;;;4.78;;
58768;SDS011;44536;47.474;19.056;2023-12-20T12:57:27;8.60;;;4.15;;
58768;SDS011;44536;47.474;19.056;2023-12-20T13:00:30;8.27;;;3.65;;
58768;SDS011;44536;47.474;19.056;2023-12-20T13:03:32;9.98;;;3.72;;
58768;SDS011;44536;47.474;19.056;2023-12-20T13:06:39;4.75;;;3.25;;
58768;SDS011;44536;47.474;19.056;2023-12-20T13:09:43;9.43;;;5.07;;
58768;SDS011;44536;47.474;19.056;2023-12-20T13:12:45;7.60;;;2.90;;
58768;SDS011;44536;47.474;19.056;2023-12-20T13:15:48;6.87;;;3.37;;
58768;SDS011;44536;47.474;19.056;2023-12-20T13:18:55;11.23;;;5.97;;
58768;SDS011;44536;47.474;19.056;2023-12-20T13:21:58;10.00;;;5.03;;
58768;SDS011;44536;47.474;19.056;2023-12-20T13:25:00;9.20;;;4.82;;
58768;SDS011;44536;47.474;19.056;2023-12-20T13:28:05;9.07;;;5.12;;
58768;SDS011;44536;47.474;19.056;2023-12-20T13:31:07;10.18;;;4.20;;
58768;SDS011;44536;47.474;19.056;2023-12-20T13:34:09;6.18;;;3.28;;
58768;SDS011;44536;47.474;19.056;2023-12-20T13:37:12;8.20;;;3.40;;
58768;SDS011;44536;47.474;19.056;2023-12-20T13:40:14;8.95;;;4.32;;
58768;SDS011;44536;47.474;19.056;2023-12-20T13:43:16;7.05;;;3.65;;
58768;SDS011;44536;47.474;19.056;2023-12-20T13:46:23;8.15;;;4.87;;
58768;SDS011;44536;47.474;19.056;2023-12-20T13:49:26;15.02;;;5.40;;
58768;SDS011;44536;47.474;19.056;2023-12-20T13:52:29;8.60;;;3.90;;
58768;SDS011;44536;47.474;19.056;2023-12-20T13:55:31;7.72;;;4.90;;
58768;SDS011;44536;47.474;19.056;2023-12-20T13:58:33;10.80;;;4.62;;
58768;SDS011;44536;47.474;19.056;2023-12-20T14:01:39;7.93;;;4.20;;
58768;SDS011;44536;47.474;19.056;2023-12-20T14:04:41;7.82;;;4.55;;
58768;SDS011;44536;47.474;19.056;2023-12-20T14:07:44;10.35;;;5.12;;
58768;SDS011;44536;47.474;19.056;2023-12-20T14:10:48;11.12;;;5.30;;
58768;SDS011;44536;47.474;19.056;2023-12-20T14:13:50;8.32;;;4.65;;
58768;SDS011;44536;47.474;19.056;2023-12-20T14:16:52;8.43;;;4.87;;
58768;SDS011;44536;47.474;19.056;2023-12-20T14:19:54;12.68;;;4.87;;
58768;SDS011;44536;47.474;19.056;2023-12-20T14:22:57;4.80;;;2.97;;
58768;SDS011;44536;47.474;19.056;2023-12-20T14:25:59;8.88;;;4.45;;
58768;SDS011;44536;47.474;19.056;2023-12-20T14:29:01;12.95;;;5.70;;
58768;SDS011;44536;47.474;19.056;2023-12-20T14:32:05;8.45;;;3.12;;
58768;SDS011;44536;47.474;19.056;2023-12-20T14:35:08;9.13;;;3.53;;
58768;SDS011;44536;47.474;19.056;2023-12-20T14:38:11;6.75;;;3.60;;
58768;SDS011;44536;47.474;19.056;2023-12-20T14:41:15;9.60;;;4.70;;
58768;SDS011;44536;47.474;19.056;2023-12-20T14:44:19;6.47;;;3.53;;
58768;SDS011;44536;47.474;19.056;2023-12-20T14:47:21;6.37;;;3.97;;
58768;SDS011;44536;47.474;19.056;2023-12-20T14:50:23;6.30;;;2.78;;
58768;SDS011;44536;47.474;19.056;2023-12-20T14:53:26;5.25;;;3.35;;
58768;SDS011;44536;47.474;19.056;2023-12-20T14:56:28;9.70;;;5.37;;
58768;SDS011;44536;47.474;19.056;2023-12-20T14:59:30;8.82;;;4.72;;
58768;SDS011;44536;47.474;19.056;2023-12-20T15:02:32;5.80;;;4.15;;
58768;SDS011;44536;47.474;19.056;2023-12-20T15:05:35;3.83;;;1.98;;
58768;SDS011;44536;47.474;19.056;2023-12-20T15:08:37;5.35;;;3.05;;
58768;SDS011;44536;47.474;19.056;2023-12-20T15:11:40;13.70;;;5.78;;
58768;SDS011;44536;47.474;19.056;2023-12-20T15:14:42;5.10;;;2.97;;
58768;SDS011;44536;47.474;19.056;2023-12-20T15:17:44;10.52;;;3.45;;
58768;SDS011;44536;47.474;19.056;2023-12-20T15:20:49;2.90;;;1.70;;
58768;SDS011;44536;47.474;19.056;2023-12-20T15:23:52;10.30;;;4.28;;
58768;SDS011;44536;47.474;19.056;2023-12-20T15:26:55;7.40;;;5.00;;
58768;SDS011;44536;47.474;19.056;2023-12-20T15:29:58;6.75;;;3.37;;
58768;SDS011;44536;47.474;19.056;2023-12-20T15:33:03;7.72;;;3.00;;
58768;SDS011;44536;47.474;19.056;2023-12-20T15:36:09;5.05;;;2.97;;
58768;SDS011;44536;47.474;19.056;2023-12-20T15:39:11;9.00;;;4.25;;
58768;SDS011;44536;47.474;19.056;2023-12-20T15:42:16;7.97;;;4.05;;
58768;SDS011;44536;47.474;19.056;2023-12-20T15:45:18;3.37;;;2.05;;
58768;SDS011;44536;47.474;19.056;2023-12-20T15:48:22;7.20;;;3.55;;
58768;SDS011;44536;47.474;19.056;2023-12-20T15:51:34;10.55;;;4.20;;
58768;SDS011;44536;47.474;19.056;2023-12-20T15:54:37;6.65;;;5.00;;
58768;SDS011;44536;47.474;19.056;2023-12-20T15:57:41;7.82;;;3.92;;
58768;SDS011;44536;47.474;19.056;2023-12-20T16:00:55;4.45;;;2.95;;
58768;SDS011;44536;47.474;19.056;2023-12-20T16:03:58;5.37;;;3.03;;
58768;SDS011;44536;47.474;19.056;2023-12-20T16:07:01;8.30;;;4.07;;
58768;SDS011;44536;47.474;19.056;2023-12-20T16:10:04;8.63;;;3.30;;
58768;SDS011;44536;47.474;19.056;2023-12-20T16:13:06;9.85;;;4.68;;
58768;SDS011;44536;47.474;19.056;2023-12-20T16:16:08;7.60;;;5.28;;
58768;SDS011;44536;47.474;19.056;2023-12-20T16:19:11;7.60;;;3.30;;
58768;SDS011;44536;47.474;19.056;2023-12-20T16:22:13;10.43;;;3.72;;
58768;SDS011;44536;47.474;19.056;2023-12-20T16:25:16;9.52;;;3.45;;
58768;SDS011;44536;47.474;19.056;2023-12-20T16:28:18;6.05;;;2.83;;
58768;SDS011;44536;47.474;19.056;2023-12-20T16:31:20;5.18;;;2.67;;
58768;SDS011;44536;47.474;19.056;2023-12-20T16:34:23;5.90;;;2.42;;
58768;SDS011;44536;47.474;19.056;2023-12-20T16:37:25;6.40;;;2.97;;
58768;SDS011;44536;47.474;19.056;2023-12-20T16:40:28;6.67;;;2.87;;
58768;SDS011;44536;47.474;19.056;2023-12-20T16:43:30;10.35;;;5.18;;
58768;SDS011;44536;47.474;19.056;2023-12-20T16:46:33;11.18;;;5.28;;
58768;SDS011;44536;47.474;19.056;2023-12-20T16:49:35;8.25;;;4.05;;
58768;SDS011;44536;47.474;19.056;2023-12-20T16:52:37;7.87;;;3.80;;
58768;SDS011;44536;47.474;19.056;2023-12-20T16:55:39;7.82;;;3.62;;
58768;SDS011;44536;47.474;19.056;2023-12-20T16:58:43;8.52;;;4.68;;
58768;SDS011;44536;47.474;19.056;2023-12-20T17:01:45;7.05;;;4.53;;
58768;SDS011;44536;47.474;19.056;2023-12-20T17:04:47;8.45;;;4.32;;
58768;SDS011;44536;47.474;19.056;2023-12-20T17:07:50;8.60;;;3.83;;
58768;SDS011;44536;47.474;19.056;2023-12-20T17:10:52;8.05;;;4.32;;
58768;SDS011;44536;47.474;19.056;2023-12-20T17:13:54;3.90;;;2.12;;
58768;SDS011;44536;47.474;19.056;2023-12-20T17:16:58;6.65;;;4.43;;
58768;SDS011;44536;47.474;19.056;2023-12-20T17:20:00;4.85;;;2.35;;
58768;SDS011;44536;47.474;19.056;2023-12-20T17:23:03;8.27;;;3.53;;
58768;SDS011;44536;47.474;19.056;2023-12-20T17:26:05;6.43;;;2.78;;
58768;SDS011;44536;47.474;19.056;2023-12-20T17:29:07;6.07;;;3.72;;
58768;SDS011;44536;47.474;19.056;2023-12-20T17:32:09;8.07;;;3.65;;
58768;SDS011;44536;47.474;19.056;2023-12-20T17:35:12;4.90;;;3.35;;
58768;SDS011;44536;47.474;19.056;2023-12-20T17:38:13;2.80;;;1.58;;
58768;SDS011;44536;47.474;19.056;2023-12-20T17:41:16;6.60;;;4.28;;
58768;SDS011;44536;47.474;19.056;2023-12-20T17:44:18;4.28;;;2.58;;
58768;SDS011;44536;47.474;19.056;2023-12-20T17:47:20;7.37;;;3.12;;
58768;SDS011;44536;47.474;19.056;2023-12-20T17:50:23;8.70;;;2.92;;
58768;SDS011;44536;47.474;19.056;2023-12-20T17:53:25;5.18;;;3.25;;
58768;SDS011;44536;47.474;19.056;2023-12-20T17:56:28;9.98;;;3.90;;
58768;SDS011;44536;47.474;19.056;2023-12-20T17:59:31;7.75;;;2.65;;